createdAt,value
2018-10-01T16:01:35.073Z,12.00
2018-10-01T16:04:03.316Z,12.10
2018-10-01T16:06:31.497Z,12.20
2018-10-01T16:08:59.784Z,12.20
2018-10-01T16:11:27.947Z,12.20
2018-10-01T16:13:56.113Z,12.20
2018-10-01T16:16:24.280Z,12.10
2018-10-01T16:18:52.456Z,12.10
2018-10-01T16:21:20.629Z,12.10
2018-10-01T16:23:48.773Z,12.10
2018-10-01T16:26:16.920Z,12.10
2018-10-01T16:28:45.065Z,12.00
2018-10-01T16:31:13.237Z,11.90
2018-10-01T16:33:41.360Z,11.90
2018-10-01T16:36:09.521Z,11.80
2018-10-01T16:38:38.491Z,11.70
2018-10-01T16:41:07.184Z,11.70
2018-10-01T16:43:35.302Z,11.60
2018-10-01T16:46:03.436Z,11.50
2018-10-01T16:48:31.564Z,11.40
2018-10-01T16:50:59.737Z,11.30
2018-10-01T16:53:27.887Z,11.10
2018-10-01T16:55:56.033Z,10.90
2018-10-01T16:58:24.268Z,10.80
2018-10-01T17:00:52.360Z,10.70
2018-10-01T17:03:20.505Z,10.60
2018-10-01T17:05:48.681Z,10.50
2018-10-01T17:08:16.817Z,10.40
2018-10-01T17:10:44.957Z,10.30
2018-10-01T17:13:13.167Z,10.20
2018-10-01T17:15:41.264Z,10.10
2018-10-01T17:18:09.467Z,10.10
2018-10-01T17:20:37.566Z,10.00
2018-10-01T17:23:05.714Z,10.00
2018-10-01T17:25:33.869Z,9.90
2018-10-01T17:28:02.052Z,9.90
2018-10-01T17:30:30.153Z,9.90
2018-10-01T17:32:58.343Z,9.80
2018-10-01T17:35:26.593Z,9.80
2018-10-01T17:37:54.772Z,9.90
2018-10-01T17:40:22.932Z,9.90
2018-10-01T17:42:51.108Z,9.90
2018-10-01T17:45:19.275Z,9.90
2018-10-01T17:47:47.404Z,9.90
2018-10-01T17:50:15.595Z,10.00
2018-10-01T17:52:43.885Z,10.00
2018-10-01T17:55:12.030Z,10.00
2018-10-01T17:57:40.186Z,10.00
2018-10-01T18:00:08.556Z,10.00
2018-10-01T18:02:36.676Z,9.90
2018-10-01T18:05:04.832Z,9.90
2018-10-01T18:07:32.993Z,9.80
2018-10-01T18:10:01.126Z,9.60
2018-10-01T18:12:29.271Z,9.50
2018-10-01T18:14:57.428Z,9.50
2018-10-01T18:17:25.581Z,9.50
2018-10-01T18:19:53.789Z,9.50
2018-10-01T18:22:21.940Z,9.50
2018-10-01T18:24:50.116Z,9.40
2018-10-01T18:27:18.602Z,9.40
2018-10-01T18:29:46.776Z,9.40
2018-10-01T18:32:14.893Z,9.40
2018-10-01T18:34:43.040Z,9.40
2018-10-01T18:37:11.197Z,9.50
2018-10-01T18:39:39.558Z,9.40
2018-10-01T18:42:07.744Z,9.40
2018-10-01T18:44:35.840Z,9.40
2018-10-01T18:47:03.964Z,9.40
2018-10-01T18:49:32.129Z,9.30
2018-10-01T18:52:00.252Z,9.30
2018-10-01T18:54:28.424Z,9.30
2018-10-01T18:56:56.584Z,9.20
2018-10-01T18:59:24.771Z,9.10
2018-10-01T19:01:52.923Z,9.00
2018-10-01T19:04:21.100Z,8.90
2018-10-01T19:06:49.244Z,8.90
2018-10-01T19:09:17.388Z,8.80
2018-10-01T19:11:45.588Z,8.90
2018-10-01T19:14:13.708Z,8.80
2018-10-01T19:16:41.839Z,8.80
2018-10-01T19:19:09.983Z,8.80
2018-10-01T19:21:38.148Z,8.70
2018-10-01T19:24:06.339Z,8.70
2018-10-01T19:26:34.475Z,8.70
2018-10-01T19:29:02.633Z,8.70
2018-10-01T19:31:30.806Z,8.60
2018-10-01T19:33:58.904Z,8.60
2018-10-01T19:36:27.065Z,8.50
2018-10-01T19:38:55.318Z,8.50
2018-10-01T19:41:23.401Z,8.50
2018-10-01T19:43:51.572Z,8.40
2018-10-01T19:46:19.732Z,8.30
2018-10-01T19:48:47.999Z,8.30
2018-10-01T19:51:16.192Z,8.20
2018-10-01T19:53:44.357Z,8.20
2018-10-01T19:56:12.417Z,8.10
2018-10-01T19:58:40.583Z,8.00
2018-10-01T20:01:08.717Z,8.00
2018-10-01T20:03:36.868Z,7.90
2018-10-01T20:06:05.043Z,7.90
2018-10-01T20:08:33.209Z,7.80
2018-10-01T20:11:01.367Z,7.80
2018-10-01T20:13:29.484Z,7.80
2018-10-01T20:15:57.684Z,7.80
2018-10-01T20:18:25.761Z,7.70
2018-10-01T20:20:53.943Z,7.70
2018-10-01T20:23:22.084Z,7.60
2018-10-01T20:25:50.321Z,7.60
2018-10-01T20:28:18.582Z,7.60
2018-10-01T20:30:46.681Z,7.60
2018-10-01T20:33:14.716Z,7.60
2018-10-01T20:35:43.079Z,7.60
2018-10-01T20:38:11.075Z,7.60
2018-10-01T20:40:39.152Z,7.50
2018-10-01T20:43:07.301Z,7.50
2018-10-01T20:45:35.459Z,7.50
2018-10-01T20:48:03.658Z,7.50
2018-10-01T20:50:31.756Z,7.50
2018-10-01T20:53:00.051Z,7.50
2018-10-01T20:55:28.058Z,7.50
2018-10-01T20:57:56.212Z,7.50
2018-10-01T21:00:24.370Z,7.50
2018-10-01T21:02:52.521Z,7.50
2018-10-01T21:05:20.680Z,7.70
2018-10-01T21:07:48.834Z,7.70
2018-10-01T21:10:16.970Z,7.80
2018-10-01T21:12:45.133Z,7.80
2018-10-01T21:15:13.296Z,7.80
2018-10-01T21:17:41.434Z,7.80
2018-10-01T21:20:09.589Z,7.70
2018-10-01T21:22:37.730Z,7.70
2018-10-01T21:25:06.256Z,7.70
2018-10-01T21:27:34.398Z,7.60
2018-10-01T21:30:02.521Z,7.60
2018-10-01T21:32:30.665Z,7.60
2018-10-01T21:34:58.820Z,7.60
2018-10-01T21:37:26.959Z,7.70
2018-10-01T21:40:03.208Z,7.70
2018-10-01T21:42:31.340Z,7.60
2018-10-01T21:45:00.433Z,7.70
2018-10-01T21:47:29.324Z,7.70
2018-10-01T21:49:57.651Z,7.70
2018-10-01T21:52:26.711Z,7.70
2018-10-01T21:54:55.329Z,7.70
2018-10-01T21:57:23.480Z,7.80
2018-10-01T21:59:51.651Z,7.70
